Time;durP1;ratioP1;P1;durP2;ratioP2;P2;SDS_P1;SDS_P2;PMS_P1;PMS_P2;Temp;Humidity;BMP_temperature;BMP_pressure;BME280_temperature;BME280_humidity;BME280_pressure;Samples;Min_cycle;Max_cycle;Signal;HPM_P1;HPM_P2
2021/09/14 00:02:16;;;;;;;9.90;9.00;;;;;;;17.37;99.84;98574.44;4984742;28;102544;-65
2021/09/14 00:04:44;;;;;;;11.65;9.82;;;;;;;17.32;100.00;98571.38;4989720;28;102797;-65
2021/09/14 00:07:12;;;;;;;9.77;8.88;;;;;;;17.40;99.04;98574.13;4992270;28;103912;-65
2021/09/14 00:09:40;;;;;;;9.18;8.32;;;;;;;17.51;98.12;98570.34;4992363;28;103195;-66
2021/09/14 00:12:09;;;;;;;8.25;7.55;;;;;;;17.60;96.64;98570.25;4982982;28;102761;-66
2021/09/14 00:14:39;;;;;;;9.88;8.95;;;;;;;17.37;97.88;98569.91;4984493;28;102687;-64
2021/09/14 00:17:07;;;;;;;10.57;9.55;;;;;;;17.15;99.91;98558.91;4997416;28;103275;-66
2021/09/14 00:19:35;;;;;;;9.35;8.55;;;;;;;17.04;100.00;98562.66;4994293;28;103264;-66
2021/09/14 00:22:03;;;;;;;6.97;6.43;;;;;;;17.33;99.03;98565.03;4993863;28;102835;-65
2021/09/14 00:24:32;;;;;;;7.85;7.10;;;;;;;17.45;97.17;98571.81;4978826;28;102665;-66
2021/09/14 00:27:00;;;;;;;10.18;7.93;;;;;;;17.43;96.40;98563.13;4983540;28;103283;-75
2021/09/14 00:29:28;;;;;;;7.93;7.22;;;;;;;17.47;97.10;98563.63;4984928;28;103323;-74
2021/09/14 00:31:58;;;;;;;7.35;6.75;;;;;;;17.59;95.43;98568.59;4970459;28;103132;-75
2021/09/14 00:34:26;;;;;;;7.28;6.68;;;;;;;17.53;95.44;98561.19;4993351;28;102737;-74
2021/09/14 00:36:54;;;;;;;6.05;4.97;;;;;;;17.55;96.03;98574.38;4985983;28;103261;-74
2021/09/14 00:39:22;;;;;;;6.05;5.55;;;;;;;17.61;94.62;98561.25;4991623;28;103291;-75
2021/09/14 00:41:50;;;;;;;5.85;5.43;;;;;;;17.63;94.12;98575.28;4984994;28;102660;-75
2021/09/14 00:44:19;;;;;;;9.88;8.25;;;;;;;17.50;93.98;98569.50;4991259;28;102689;-75
2021/09/14 00:46:47;;;;;;;9.88;8.75;;;;;;;17.21;97.89;98558.28;4989794;28;103948;-75
2021/09/14 00:49:17;;;;;;;8.05;7.35;;;;;;;17.13;99.19;98556.38;4991290;28;103242;-75
2021/09/14 00:51:45;;;;;;;9.20;8.32;;;;;;;17.06;99.33;98557.16;4976071;28;102656;-75
2021/09/14 00:54:15;;;;;;;11.40;9.48;;;;;;;16.86;100.00;98558.34;4993962;28;102757;-75
2021/09/14 00:56:44;;;;;;;10.65;9.57;;;;;;;16.90;100.00;98549.03;4991784;28;103315;-75
2021/09/14 00:59:12;;;;;;;10.43;9.40;;;;;;;16.95;100.00;98549.41;4987590;28;103202;-67
2021/09/14 01:01:40;;;;;;;9.55;8.68;;;;;;;17.03;99.89;98557.47;4987902;28;102782;-64
2021/09/14 01:04:09;;;;;;;9.50;8.68;;;;;;;16.93;99.86;98549.53;4979755;28;103874;-64
2021/09/14 01:06:39;;;;;;;9.57;8.68;;;;;;;16.68;100.00;98550.31;4970174;28;103543;-66
2021/09/14 01:09:07;;;;;;;8.88;8.18;;;;;;;16.55;100.00;98548.06;4971546;28;103199;-74
2021/09/14 01:11:36;;;;;;;8.48;7.75;;;;;;;16.48;100.00;98548.75;4988918;28;102652;-65
2021/09/14 01:14:05;;;;;;;10.18;9.07;;;;;;;16.35;100.00;98554.47;4973382;28;102694;-74
2021/09/14 01:16:40;;;;;;;9.98;9.07;;;;;;;16.25;100.00;98554.53;4991792;28;102625;-65
2021/09/14 01:19:10;;;;;;;10.43;9.43;;;;;;;16.25;100.00;98553.72;4980500;28;103238;-74
2021/09/14 01:21:39;;;;;;;11.07;10.18;;;;;;;16.26;100.00;98550.03;4967572;28;102756;-65
2021/09/14 01:24:12;;;;;;;10.88;9.77;;;;;;;16.35;100.00;98549.13;4980971;28;102771;-74
2021/09/14 01:26:46;;;;;;;11.18;10.25;;;;;;;16.36;100.00;98545.50;4983863;28;106034;-74
2021/09/14 01:30:12;;;;;;;12.15;11.05;;;;;;;16.25;100.00;98540.38;4985456;28;103241;-74
2021/09/14 01:32:12;;;;;;;12.43;11.25;;;;;;;16.24;100.00;98546.69;4967685;28;102787;-75
2021/09/14 01:34:41;;;;;;;13.55;11.43;;;;;;;16.39;100.00;98539.88;4979871;28;103083;-74
2021/09/14 01:37:09;;;;;;;10.50;8.50;;;;;;;16.66;100.00;98539.81;4986802;28;103384;-75
2021/09/14 01:39:39;;;;;;;9.15;7.35;;;;;;;16.82;100.00;98536.44;4971594;28;103266;-74
2021/09/14 01:42:07;;;;;;;9.05;8.20;;;;;;;16.88;100.00;98530.50;4989830;28;103869;-75
2021/09/14 01:44:35;;;;;;;7.05;6.35;;;;;;;16.88;100.00;98535.00;4983358;28;102637;-74
2021/09/14 01:47:04;;;;;;;15.43;12.30;;;;;;;16.65;100.00;98540.81;4986304;28;103759;-75
2021/09/14 01:49:31;;;;;;;12.85;10.05;;;;;;;16.88;100.00;98532.31;4976523;28;103314;-65
2021/09/14 01:52:01;;;;;;;9.43;8.52;;;;;;;16.94;100.00;98529.03;4968227;28;102863;-74
2021/09/14 01:54:29;;;;;;;8.50;7.70;;;;;;;17.08;100.00;98531.16;4979803;28;102766;-74
2021/09/14 01:56:59;;;;;;;12.25;11.05;;;;;;;17.06;100.00;98527.81;4990993;28;103694;-74
2021/09/14 01:59:28;;;;;;;9.27;8.38;;;;;;;17.11;100.00;98537.03;4973719;28;103022;-65
2021/09/14 02:02:05;;;;;;;7.82;7.15;;;;;;;17.18;99.59;98537.22;4984254;28;102718;-65
2021/09/14 02:04:40;;;;;;;10.70;9.75;;;;;;;17.21;98.73;98540.44;4968763;28;102992;-74
2021/09/14 02:40:47;;;;;;;14.98;12.02;;;;;;;16.33;100.00;98543.13;5040457;27;103214;-75
2021/09/14 02:43:28;;;;;;;11.77;10.68;;;;;;;16.45;100.00;98541.91;5045651;27;105773;-75
2021/09/14 02:59:58;;;;;;;7.10;6.47;;;;;;;16.85;99.39;98535.31;5023246;27;102830;-65
2021/09/14 03:02:26;;;;;;;12.38;10.50;;;;;;;16.68;100.00;98535.16;5045164;27;102736;-74
2021/09/14 03:04:54;;;;;;;9.98;9.02;;;;;;;16.81;99.70;98540.94;5067179;27;103598;-75
2021/09/14 03:07:24;;;;;;;9.50;8.73;;;;;;;16.84;99.37;98528.31;5061570;27;103269;-74
2021/09/14 03:09:52;;;;;;;8.70;7.90;;;;;;;16.89;100.00;98534.00;5041738;27;102690;-74
2021/09/14 03:12:20;;;;;;;9.57;8.68;;;;;;;17.00;98.87;98531.09;5062911;27;102730;-74
2021/09/14 03:14:49;;;;;;;9.45;7.97;;;;;;;16.98;98.77;98528.56;5059811;27;105059;-64
2021/09/14 03:17:19;;;;;;;13.15;11.60;;;;;;;16.73;100.00;98532.88;5032813;27;105668;-75
2021/09/14 03:19:47;;;;;;;11.48;10.48;;;;;;;16.68;100.00;98531.66;5032220;27;102854;-66
2021/09/14 03:22:15;;;;;;;11.75;10.70;;;;;;;16.70;100.00;98527.84;5042190;27;102833;-72
2021/09/14 03:24:44;;;;;;;13.10;11.85;;;;;;;16.68;100.00;98526.31;5036427;27;103543;-74
2021/09/14 03:27:13;;;;;;;13.07;9.88;;;;;;;16.77;100.00;98522.75;5040322;27;103319;-75
2021/09/14 03:29:41;;;;;;;8.55;7.75;;;;;;;16.83;100.00;98515.94;5040948;27;103247;-75
2021/09/14 03:32:10;;;;;;;12.02;10.68;;;;;;;16.76;100.00;98526.38;5045954;27;102890;-74
2021/09/14 03:34:42;;;;;;;8.30;7.50;;;;;;;16.84;100.00;98528.31;5046295;27;104174;-74
2021/09/14 03:37:10;;;;;;;7.45;6.82;;;;;;;16.92;100.00;98529.22;5032765;27;104029;-74
2021/09/14 03:39:38;;;;;;;8.55;7.78;;;;;;;17.02;99.46;98532.63;5027243;27;102809;-74
2021/09/14 03:42:13;;;;;;;7.47;6.88;;;;;;;17.08;98.94;98526.66;5028246;27;102741;-65
2021/09/14 03:44:41;;;;;;;6.75;6.15;;;;;;;17.11;98.31;98520.19;5030673;27;103247;-65
2021/09/14 03:47:11;;;;;;;6.22;5.72;;;;;;;17.12;98.17;98522.66;5024031;27;103280;-65
2021/09/14 03:49:43;;;;;;;8.82;7.90;;;;;;;17.14;97.24;98519.88;5028849;27;103755;-74
2021/09/14 03:52:11;;;;;;;8.75;7.90;;;;;;;17.13;97.62;98518.19;5028819;27;103783;-74
2021/09/14 03:54:39;;;;;;;7.28;6.68;;;;;;;17.12;97.67;98520.00;5049239;27;103167;-74
2021/09/14 03:57:07;;;;;;;8.52;7.22;;;;;;;17.15;97.63;98522.34;5051985;27;103196;-74
2021/09/14 03:59:39;;;;;;;9.63;8.60;;;;;;;17.02;97.97;98521.09;5023345;27;102760;-74
2021/09/14 04:02:16;;;;;;;13.77;11.02;;;;;;;16.78;100.00;98519.94;5018556;27;102829;-70
2021/09/14 04:05:02;;;;;;;8.93;8.13;;;;;;;16.83;100.00;98510.63;5029826;27;103365;-70
2021/09/14 04:07:39;;;;;;;10.75;9.75;;;;;;;16.88;99.68;98518.97;5025512;27;105304;-70
2021/09/14 04:10:09;;;;;;;8.30;7.50;;;;;;;16.98;99.04;98522.41;5033651;27;102710;-70
2021/09/14 04:12:37;;;;;;;8.07;7.32;;;;;;;17.03;98.21;98517.44;5024516;27;102733;-70
2021/09/14 04:15:07;;;;;;;11.15;10.05;;;;;;;17.01;98.13;98519.44;5024607;27;104293;-70
2021/09/14 04:17:36;;;;;;;9.02;8.23;;;;;;;16.88;100.00;98505.66;5026181;27;103311;-70
2021/09/14 04:20:07;;;;;;;7.18;6.57;;;;;;;16.94;99.94;98507.69;5028619;27;102665;-70
2021/09/14 04:22:38;;;;;;;8.60;7.85;;;;;;;16.99;99.55;98510.72;5033369;27;102934;-70
2021/09/14 04:25:09;;;;;;;9.27;8.38;;;;;;;17.01;98.71;98516.78;5031748;27;103262;-69
2021/09/14 04:27:38;;;;;;;13.18;11.43;;;;;;;16.74;100.00;98517.72;5024162;27;103353;-70
2021/09/14 04:30:09;;;;;;;12.45;11.05;;;;;;;16.59;100.00;98514.75;5048033;27;103271;-70
2021/09/14 04:32:38;;;;;;;13.63;11.40;;;;;;;16.50;100.00;98512.13;5026852;27;102663;-67
2021/09/14 04:35:08;;;;;;;10.90;9.30;;;;;;;16.66;100.00;98523.81;5029645;27;104217;-67
2021/09/14 04:37:36;;;;;;;8.35;7.35;;;;;;;16.79;100.00;98510.91;5027572;27;103271;-66
2021/09/14 04:40:07;;;;;;;8.23;7.43;;;;;;;16.88;100.00;98513.66;5031544;27;102719;-67
2021/09/14 04:42:36;;;;;;;8.48;7.68;;;;;;;16.89;100.00;98513.50;5027121;27;102693;-67
2021/09/14 04:45:06;;;;;;;8.57;7.82;;;;;;;16.90;100.00;98519.69;5025922;27;103283;-66
2021/09/14 04:47:35;;;;;;;9.82;8.88;;;;;;;16.94;98.82;98513.03;5024640;27;103249;-67
2021/09/14 04:50:04;;;;;;;7.85;7.07;;;;;;;16.93;99.39;98516.69;5031097;27;102747;-67
2021/09/14 04:52:35;;;;;;;6.90;6.30;;;;;;;16.94;98.84;98519.22;5026337;27;102795;-68
2021/09/14 04:55:04;;;;;;;12.10;10.25;;;;;;;16.55;100.00;98521.38;5023435;27;103501;-68
2021/09/14 04:57:32;;;;;;;12.20;10.13;;;;;;;16.43;100.00;98521.72;5025592;27;103198;-68
2021/09/14 05:00:00;;;;;;;12.30;11.00;;;;;;;16.30;100.00;98519.44;5036821;27;102643;-63
2021/09/14 05:02:30;;;;;;;9.25;8.45;;;;;;;16.43;100.00;98511.91;5020372;27;102736;-68
2021/09/14 05:04:59;;;;;;;10.95;9.85;;;;;;;16.37;100.00;98511.66;5021605;27;103677;-64
2021/09/14 05:07:29;;;;;;;9.02;8.30;;;;;;;16.44;100.00;98515.41;5018674;27;104169;-64
2021/09/14 05:09:58;;;;;;;11.05;10.00;;;;;;;16.40;100.00;98509.53;5023601;27;103013;-64
2021/09/14 05:12:26;;;;;;;12.60;11.43;;;;;;;16.22;100.00;98506.03;5020634;27;103061;-64
2021/09/14 05:14:54;;;;;;;13.52;11.35;;;;;;;16.23;100.00;98511.19;5018985;27;104241;-64
2021/09/14 05:17:40;;;;;;;9.05;8.35;;;;;;;16.32;100.00;98512.13;5040475;27;102978;-64
2021/09/14 05:20:25;;;;;;;11.68;9.73;;;;;;;16.44;100.00;98513.59;5014723;27;103232;-64
2021/09/14 05:23:10;;;;;;;9.10;8.20;;;;;;;16.54;100.00;98514.38;5027363;27;102806;-64
2021/09/14 05:25:40;;;;;;;10.73;9.55;;;;;;;16.43;100.00;98517.22;5019073;27;103071;-66
2021/09/14 05:28:09;;;;;;;8.98;8.25;;;;;;;16.54;100.00;98516.19;5029714;27;104465;-67
2021/09/14 05:30:37;;;;;;;11.32;9.05;;;;;;;16.58;100.00;98523.75;5022620;27;102800;-63
2021/09/14 05:33:06;;;;;;;10.55;9.23;;;;;;;16.55;100.00;98524.06;5044769;27;103013;-64
2021/09/14 05:35:42;;;;;;;8.88;8.02;;;;;;;16.74;100.00;98523.88;5026181;27;102631;-64
2021/09/14 05:38:11;;;;;;;11.85;9.18;;;;;;;16.73;99.71;98535.53;5044857;27;103208;-64
2021/09/14 05:40:41;;;;;;;9.90;8.95;;;;;;;16.83;99.41;98534.63;5046215;27;102682;-64
2021/09/14 05:43:15;;;;;;;8.30;7.60;;;;;;;16.94;99.14;98537.06;5021051;27;102757;-64
2021/09/14 05:45:43;;;;;;;8.60;7.85;;;;;;;17.04;97.97;98535.16;5025920;27;105483;-67
2021/09/14 05:48:11;;;;;;;6.97;6.38;;;;;;;17.14;97.47;98541.22;5022133;27;105539;-67
2021/09/14 05:50:42;;;;;;;8.10;7.30;;;;;;;17.19;97.40;98538.91;5018871;27;102978;-64
2021/09/14 05:53:10;;;;;;;8.40;7.60;;;;;;;17.19;98.14;98539.75;5050947;27;102705;-64
2021/09/14 05:55:42;;;;;;;11.77;10.48;;;;;;;17.01;99.43;98535.47;5019746;27;103230;-64
2021/09/14 05:58:12;;;;;;;10.27;9.20;;;;;;;17.07;100.00;98550.81;5017918;27;105996;-64
2021/09/14 06:00:41;;;;;;;12.27;10.73;;;;;;;16.95;100.00;98541.41;5021252;27;102739;-63
2021/09/14 06:03:09;;;;;;;11.65;9.75;;;;;;;17.14;100.00;98541.22;5022738;27;102765;-64
2021/09/14 06:05:38;;;;;;;10.57;9.52;;;;;;;17.33;98.52;98543.69;5030273;27;105516;-64
2021/09/14 06:08:07;;;;;;;10.82;9.63;;;;;;;17.52;97.03;98532.78;5020889;27;105604;-62
2021/09/14 06:10:41;;;;;;;8.77;7.95;;;;;;;17.67;95.99;98538.41;5024762;27;103412;-67
2021/09/14 06:13:12;;;;;;;9.38;7.93;;;;;;;17.77;95.61;98539.13;5037244;27;102662;-66
2021/09/14 06:15:40;;;;;;;14.93;10.57;;;;;;;17.41;97.89;98546.41;5023507;27;103259;-67
2021/09/14 06:18:09;;;;;;;10.80;9.68;;;;;;;17.72;95.98;98539.59;5019541;27;105427;-66
2021/09/14 06:20:39;;;;;;;10.18;9.13;;;;;;;17.78;95.77;98547.00;5023419;27;102735;-64
2021/09/14 06:23:07;;;;;;;9.60;8.60;;;;;;;18.01;94.88;98551.75;5041681;27;102784;-68
2021/09/14 06:25:37;;;;;;;9.38;7.82;;;;;;;17.83;96.27;98533.97;5047833;27;104453;-67
2021/09/14 06:28:07;;;;;;;6.60;6.00;;;;;;;18.14;94.57;98541.44;5022591;27;103359;-68
2021/09/14 06:30:36;;;;;;;9.55;7.80;;;;;;;18.00;96.06;98534.88;5024732;27;102646;-68
2021/09/14 06:33:05;;;;;;;10.52;8.50;;;;;;;18.28;94.21;98538.16;5019067;27;102730;-67
2021/09/14 06:35:36;;;;;;;8.45;6.50;;;;;;;18.44;93.00;98533.66;5023209;27;103320;-68
2021/09/14 06:38:17;;;;;;;6.72;6.13;;;;;;;18.57;91.73;98541.25;5023420;27;103211;-63
2021/09/14 06:40:48;;;;;;;11.18;10.13;;;;;;;18.60;90.89;98538.25;5023852;27;103277;-65
2021/09/14 06:43:18;;;;;;;11.13;10.02;;;;;;;18.68;90.28;98540.94;5026518;27;103141;-63
2021/09/14 06:46:01;;;;;;;12.88;11.05;;;;;;;18.65;91.31;98551.97;5024680;27;104255;-64
2021/09/14 06:48:34;;;;;;;9.38;8.45;;;;;;;18.85;91.09;98558.69;5026233;27;103976;-62
2021/09/14 06:51:02;;;;;;;8.18;7.35;;;;;;;19.07;90.04;98552.66;5021807;27;102813;-64
2021/09/14 06:53:30;;;;;;;14.18;9.95;;;;;;;19.20;89.11;98556.69;5021577;27;104164;-62
2021/09/14 06:55:58;;;;;;;10.27;7.95;;;;;;;19.41;87.96;98554.34;5041031;27;103186;-62
2021/09/14 06:58:36;;;;;;;11.20;7.95;;;;;;;19.64;87.19;98550.78;5041917;27;103407;-64
2021/09/14 07:01:05;;;;;;;11.73;9.15;;;;;;;19.67;87.30;98554.97;5037283;27;102862;-64
2021/09/14 07:03:34;;;;;;;7.32;6.63;;;;;;;19.88;86.54;98551.69;5026268;27;102811;-63
2021/09/14 07:06:02;;;;;;;11.32;9.55;;;;;;;19.77;86.08;98552.91;5042370;27;103539;-68
2021/09/14 07:08:30;;;;;;;8.23;7.35;;;;;;;20.07;85.74;98554.00;5021567;27;103365;-68
2021/09/14 07:11:00;;;;;;;11.35;9.82;;;;;;;19.99;84.95;98549.50;5050320;27;102944;-67
2021/09/14 07:13:28;;;;;;;8.40;7.53;;;;;;;20.23;84.14;98554.75;5048381;27;103918;-67
2021/09/14 07:16:02;;;;;;;7.55;6.85;;;;;;;20.45;83.33;98558.53;5057195;27;103319;-64
2021/09/14 07:18:30;;;;;;;10.38;7.65;;;;;;;20.64;81.53;98554.53;5057017;27;103267;-64
2021/09/14 07:20:59;;;;;;;9.48;7.18;;;;;;;20.75;80.60;98557.66;5045834;27;102662;-64
2021/09/14 07:23:27;;;;;;;6.45;5.85;;;;;;;21.01;79.82;98554.63;5049929;27;102636;-65
2021/09/14 07:25:55;;;;;;;7.53;6.70;;;;;;;21.09;80.65;98553.75;5042241;27;103383;-64
2021/09/14 07:28:24;;;;;;;7.47;6.78;;;;;;;21.26;79.06;98550.75;5043015;27;103186;-64
2021/09/14 07:30:52;;;;;;;8.65;7.28;;;;;;;21.02;79.03;98542.88;5050865;27;102619;-65
2021/09/14 07:33:21;;;;;;;14.10;8.68;;;;;;;21.16;78.77;98542.13;5041391;27;102685;-68
2021/09/14 07:35:49;;;;;;;6.38;5.78;;;;;;;21.59;78.43;98534.28;5047791;27;103353;-68
2021/09/14 07:38:18;;;;;;;6.88;6.18;;;;;;;22.03;76.81;98540.56;5028273;27;104202;-68
2021/09/14 07:40:46;;;;;;;6.65;6.10;;;;;;;22.38;75.33;98542.44;5026819;27;102669;-68
2021/09/14 07:43:15;;;;;;;7.85;6.72;;;;;;;22.66;74.02;98539.03;5048793;27;103145;-67
2021/09/14 07:45:45;;;;;;;6.65;6.05;;;;;;;22.38;74.84;98541.59;5044417;27;103408;-68
2021/09/14 07:48:13;;;;;;;8.90;7.13;;;;;;;22.73;72.97;98538.09;5045254;27;103583;-67
2021/09/14 07:50:43;;;;;;;9.77;7.20;;;;;;;22.89;72.72;98545.06;5046048;27;102612;-68
2021/09/14 07:53:11;;;;;;;10.38;6.65;;;;;;;22.52;72.75;98546.94;5049962;27;102652;-64
2021/09/14 07:55:39;;;;;;;8.25;6.43;;;;;;;23.01;71.23;98549.78;5045389;27;103269;-64
2021/09/14 07:58:07;;;;;;;10.68;6.75;;;;;;;23.22;70.78;98550.75;5046086;27;103241;-65
2021/09/14 08:00:35;;;;;;;7.90;6.50;;;;;;;23.31;69.86;98555.81;5051468;27;102536;-68
2021/09/14 08:03:03;;;;;;;9.13;6.75;;;;;;;23.42;69.91;98552.63;5044442;27;104008;-64
2021/09/14 08:05:31;;;;;;;7.32;6.20;;;;;;;24.01;68.99;98553.03;5045867;27;104116;-67
2021/09/14 08:08:01;;;;;;;6.65;5.20;;;;;;;24.54;66.01;98553.28;5045376;27;103164;-68
2021/09/14 08:10:29;;;;;;;6.65;5.50;;;;;;;24.32;65.91;98544.47;5042019;27;102586;-67
2021/09/14 08:12:57;;;;;;;7.07;5.45;;;;;;;24.83;65.97;98544.03;5037515;27;102684;-68
2021/09/14 08:15:25;;;;;;;8.32;6.47;;;;;;;24.91;62.97;98543.84;5047536;27;104039;-65
2021/09/14 08:17:53;;;;;;;10.07;5.40;;;;;;;25.17;63.55;98549.28;5025953;27;103237;-65
2021/09/14 08:20:21;;;;;;;6.40;5.53;;;;;;;25.14;62.82;98541.59;5047482;27;102587;-63
2021/09/14 08:22:49;;;;;;;8.48;5.97;;;;;;;25.56;62.55;98545.75;5041318;27;104346;-64
2021/09/14 08:25:19;;;;;;;7.90;5.57;;;;;;;25.85;59.97;98548.84;5025792;27;103967;-64
2021/09/14 08:27:47;;;;;;;5.72;5.22;;;;;;;26.49;61.64;98545.31;5044515;27;103206;-63
2021/09/14 08:30:16;;;;;;;5.57;4.85;;;;;;;26.10;62.03;98540.88;5024241;27;102740;-64
2021/09/14 08:32:44;;;;;;;6.00;5.40;;;;;;;26.73;60.33;98547.28;5040389;27;102707;-67
2021/09/14 08:35:12;;;;;;;6.57;5.75;;;;;;;26.41;58.86;98542.88;5045812;27;103806;-63
2021/09/14 08:37:40;;;;;;;7.93;5.90;;;;;;;26.82;58.77;98545.16;5040747;27;103271;-67
2021/09/14 08:40:09;;;;;;;6.60;5.90;;;;;;;26.81;59.13;98547.03;5047244;27;103292;-67
2021/09/14 08:42:39;;;;;;;7.13;5.88;;;;;;;27.34;60.16;98542.06;5046215;27;102839;-63
2021/09/14 08:45:09;;;;;;;9.77;5.88;;;;;;;26.62;58.91;98539.84;5046082;27;103081;-67
2021/09/14 08:47:38;;;;;;;6.13;5.47;;;;;;;27.11;59.31;98543.72;5038569;27;103342;-64
2021/09/14 08:50:08;;;;;;;6.32;5.43;;;;;;;27.53;57.38;98546.56;5044757;27;102833;-67
2021/09/14 08:52:36;;;;;;;5.70;5.13;;;;;;;28.26;57.64;98545.81;5044077;27;102758;-67
2021/09/14 08:55:05;;;;;;;5.50;4.88;;;;;;;28.39;56.31;98537.50;5036315;27;104305;-67
2021/09/14 08:57:33;;;;;;;7.40;6.03;;;;;;;27.59;56.85;98536.69;5045562;27;103296;-64
2021/09/14 09:00:04;;;;;;;8.52;6.40;;;;;;;27.55;56.07;98528.16;5052210;27;102760;-68
2021/09/14 09:02:39;;;;;;;6.43;5.38;;;;;;;28.31;56.32;98537.81;5043361;27;102593;-67
2021/09/14 09:08:48;;;;;;;7.43;5.53;;;;;;;28.37;54.79;98535.00;4937775;22;105435;-64
2021/09/14 09:20:07;;;;;;;7.55;6.50;;;;;;;26.36;59.96;98524.53;4924602;22;103176;-68
2021/09/14 09:22:53;;;;;;;7.40;6.53;;;;;;;26.99;57.54;98524.63;4942909;22;104236;-68
2021/09/14 09:29:22;;;;;;;6.32;4.72;;;;;;;29.08;52.04;98529.63;4942387;22;104615;-64
2021/09/14 09:35:48;;;;;;;5.20;4.35;;;;;;;29.69;52.35;98523.00;4951634;22;104223;-68
2021/09/14 09:42:39;;;;;;;5.80;5.03;;;;;;;29.50;52.03;98524.19;4970145;22;104522;-69
2021/09/14 09:45:23;;;;;;;6.00;4.65;;;;;;;30.08;50.53;98525.00;4955665;28;103746;-68
2021/09/14 09:51:53;;;;;;;5.18;4.55;;;;;;;30.12;50.95;98519.91;4775647;22;103093;-69
2021/09/14 09:59:02;;;;;;;8.43;5.10;;;;;;;30.08;52.44;98518.72;4935704;22;102919;-65
2021/09/14 10:06:17;;;;;;;5.53;4.40;;;;;;;30.10;49.73;98511.97;4932846;22;103815;-68
2021/09/14 10:09:07;;;;;;;4.72;4.32;;;;;;;30.24;48.60;98499.72;4920488;28;103082;-70
2021/09/14 10:12:00;;;;;;;5.43;4.95;;;;;;;29.92;50.38;98501.22;4931419;28;104121;-66
2021/09/14 10:19:13;;;;;;;5.57;4.68;;;;;;;30.26;47.93;98508.47;4979393;22;105355;-68
2021/09/14 10:26:36;;;;;;;8.05;5.18;;;;;;;30.40;48.54;98499.00;4926493;22;104988;-68
2021/09/14 10:29:42;;;;;;;;;;;;;;;;;;;;;
2021/09/14 10:33:27;;;;;;;5.95;5.05;;;;;;;30.39;48.34;98508.25;4894077;22;103140;-66
2021/09/14 10:36:31;;;;;;;4.03;3.72;;;;;;;30.94;48.46;98502.22;4932732;22;104001;-69
2021/09/14 10:43:29;;;;;;;5.55;4.05;;;;;;;30.79;48.30;98496.47;4930427;22;104997;-68
2021/09/14 10:50:52;;;;;;;6.78;5.70;;;;;;;28.55;52.51;98504.25;4939346;22;104215;-65
2021/09/14 10:53:36;;;;;;;5.00;4.60;;;;;;;29.22;51.94;98503.09;4958395;28;104077;-66
2021/09/14 10:56:30;;;;;;;5.22;3.97;;;;;;;29.95;50.84;98492.59;4941835;28;103418;-66
2021/09/14 11:03:23;;;;;;;8.45;6.05;;;;;;;29.11;51.48;98499.25;4357426;22;103588;-69
2021/09/14 11:05:53;;;;;;;5.10;4.35;;;;;;;29.38;51.91;98496.13;4938043;28;102950;-69
2021/09/14 11:08:26;;;;;;;6.53;5.93;;;;;;;27.87;54.73;98511.78;4927105;28;103219;-70
2021/09/14 11:11:00;;;;;;;6.72;6.10;;;;;;;28.24;53.67;98504.47;4944981;28;102679;-66
2021/09/14 11:13:31;;;;;;;6.53;5.93;;;;;;;27.79;55.77;98502.00;4942968;28;103099;-66
2021/09/14 11:16:01;;;;;;;7.63;6.43;;;;;;;27.52;55.52;98500.63;4941717;28;104177;-65
2021/09/14 11:18:32;;;;;;;4.88;4.40;;;;;;;28.37;56.40;98502.41;4948123;28;103269;-66
2021/09/14 11:21:07;;;;;;;5.55;5.05;;;;;;;28.41;53.28;98498.16;4940369;28;102736;-65
2021/09/14 11:23:36;;;;;;;5.88;5.38;;;;;;;28.51;53.98;98498.47;4925148;28;102873;-64
2021/09/14 11:26:07;;;;;;;5.47;4.95;;;;;;;27.88;56.32;98494.41;4947366;28;103451;-66
2021/09/14 11:28:35;;;;;;;7.78;5.28;;;;;;;28.51;55.17;98503.91;4944513;28;103238;-65
2021/09/14 11:31:05;;;;;;;6.30;5.43;;;;;;;27.86;55.99;98505.50;4940979;28;102706;-65
2021/09/14 11:33:37;;;;;;;8.55;6.57;;;;;;;27.85;56.27;98509.25;4938181;28;102728;-65
2021/09/14 11:36:08;;;;;;;7.10;5.95;;;;;;;27.73;58.09;98508.38;4937786;28;103691;-66
2021/09/14 11:38:36;;;;;;;8.88;5.85;;;;;;;27.88;57.00;98507.97;4934204;28;103717;-66
2021/09/14 11:41:10;;;;;;;7.22;5.65;;;;;;;27.92;56.55;98507.31;4941383;28;102634;-66
2021/09/14 11:43:41;;;;;;;6.80;5.60;;;;;;;27.89;57.64;98515.91;4933175;28;103919;-65
2021/09/14 11:46:14;;;;;;;15.40;5.78;;;;;;;28.02;57.04;98510.31;4926071;28;103277;-65
2021/09/14 11:48:58;;;;;;;5.57;4.90;;;;;;;27.88;56.83;98511.53;4936309;28;103038;-65
2021/09/14 11:51:28;;;;;;;6.25;5.75;;;;;;;27.05;59.75;98508.31;4940146;28;102794;-65
2021/09/14 11:53:56;;;;;;;6.53;5.60;;;;;;;27.48;59.08;98507.56;4936334;28;103969;-69
2021/09/14 11:56:27;;;;;;;5.45;5.05;;;;;;;27.40;57.98;98505.94;4937320;28;103273;-69
2021/09/14 11:58:55;;;;;;;6.07;5.53;;;;;;;27.18;58.65;98510.09;4936949;28;103335;-70
2021/09/14 12:01:31;;;;;;;5.53;4.95;;;;;;;27.58;56.77;98513.31;4939481;28;102617;-65
2021/09/14 12:04:01;;;;;;;8.77;4.50;;;;;;;27.39;57.07;98511.59;4935099;28;102804;-68
2021/09/14 12:06:31;;;;;;;5.30;4.90;;;;;;;27.68;57.28;98518.25;4936642;28;103327;-69
2021/09/14 12:09:01;;;;;;;6.20;5.28;;;;;;;27.65;56.50;98518.69;4937938;28;103333;-69
2021/09/14 12:11:31;;;;;;;6.95;5.25;;;;;;;27.04;57.36;98512.06;4939290;28;102881;-68
2021/09/14 12:14:00;;;;;;;5.40;4.55;;;;;;;27.35;57.77;98513.06;4939019;28;102643;-68
2021/09/14 12:16:29;;;;;;;4.93;4.50;;;;;;;27.37;55.61;98511.00;4923060;28;104035;-68
2021/09/14 12:18:57;;;;;;;5.53;5.00;;;;;;;27.68;55.21;98505.47;4937145;28;103225;-64
2021/09/14 12:21:28;;;;;;;6.05;4.78;;;;;;;28.12;54.01;98505.25;4942582;28;102978;-66
2021/09/14 12:23:58;;;;;;;5.68;5.10;;;;;;;27.44;55.24;98501.75;4934886;28;103160;-65
2021/09/14 12:26:28;;;;;;;6.53;5.30;;;;;;;27.13;56.11;98503.66;4935818;28;103232;-70
2021/09/14 12:28:58;;;;;;;5.03;4.57;;;;;;;27.90;55.50;98500.47;4942324;28;103424;-70
2021/09/14 12:31:32;;;;;;;6.20;5.32;;;;;;;27.50;55.68;98508.19;4941899;28;104467;-64
2021/09/14 12:34:00;;;;;;;7.82;4.55;;;;;;;27.79;55.80;98499.31;4941058;28;102986;-69
2021/09/14 12:36:30;;;;;;;7.47;5.15;;;;;;;27.55;54.17;98492.06;4938913;28;103326;-66
2021/09/14 12:38:58;;;;;;;4.95;4.20;;;;;;;27.75;55.14;98492.69;4935067;28;103291;-65
2021/09/14 12:41:26;;;;;;;5.45;4.95;;;;;;;27.36;55.07;98503.91;4941343;28;103023;-68
2021/09/14 12:43:54;;;;;;;4.55;4.15;;;;;;;27.49;56.29;98503.78;4935977;28;102940;-64
2021/09/14 12:46:22;;;;;;;4.90;4.50;;;;;;;27.51;56.78;98488.13;4923365;28;104047;-65
2021/09/14 12:48:50;;;;;;;8.95;4.97;;;;;;;27.15;57.39;98496.97;4918877;28;103313;-65
2021/09/14 12:51:19;;;;;;;5.20;4.78;;;;;;;27.73;56.16;98494.81;4930888;28;102731;-69
2021/09/14 12:53:48;;;;;;;4.97;4.43;;;;;;;28.31;53.90;98486.19;4932830;28;102863;-69
2021/09/14 12:56:18;;;;;;;6.03;5.43;;;;;;;27.60;54.58;98490.31;4930277;28;104035;-68
2021/09/14 12:58:50;;;;;;;5.38;4.95;;;;;;;27.32;55.27;98495.38;4934970;28;103424;-68
2021/09/14 13:01:18;;;;;;;4.88;4.43;;;;;;;27.44;56.31;98493.63;4935668;28;102859;-69
2021/09/14 13:03:47;;;;;;;7.30;4.78;;;;;;;27.89;54.72;98493.38;4933526;28;102817;-65
2021/09/14 13:06:15;;;;;;;6.20;5.60;;;;;;;27.59;56.10;98499.50;4935852;28;103291;-65
2021/09/14 13:08:43;;;;;;;5.00;4.22;;;;;;;27.89;57.41;98496.06;4937187;28;103216;-64
2021/09/14 13:11:13;;;;;;;5.43;5.03;;;;;;;27.83;57.60;98492.38;4934405;28;102746;-65
2021/09/14 13:16:26;;;;;;;6.75;5.88;;;;;;;28.05;56.55;98480.03;4933786;28;103510;-64
2021/09/14 13:18:54;;;;;;;7.40;5.30;;;;;;;27.78;56.47;98486.81;4935006;28;103045;-65
2021/09/14 13:21:27;;;;;;;6.82;5.78;;;;;;;28.11;54.27;98487.28;4930264;28;103107;-65
2021/09/14 13:23:56;;;;;;;5.47;4.75;;;;;;;29.20;52.58;98473.38;4934832;28;103084;-65
2021/09/14 13:26:26;;;;;;;6.63;5.45;;;;;;;28.29;54.74;98482.88;4913875;28;104431;-64
2021/09/14 13:28:54;;;;;;;6.38;5.63;;;;;;;27.96;56.59;98478.66;4943996;28;103179;-65
2021/09/14 13:31:22;;;;;;;7.35;5.68;;;;;;;27.70;57.10;98478.97;4936335;28;102836;-65